createdAt,value
2019-06-20T00:00:11.618Z,8.00
2019-06-20T00:01:11.607Z,8.00
2019-06-20T00:02:11.611Z,8.00
2019-06-20T00:03:11.644Z,8.00
2019-06-20T00:04:11.597Z,8.00
2019-06-20T00:05:11.571Z,4.00
2019-06-20T00:06:11.564Z,4.00
2019-06-20T00:07:11.559Z,4.00
2019-06-20T00:08:11.569Z,4.00
2019-06-20T00:09:11.522Z,8.00
2019-06-20T00:10:11.521Z,8.00
2019-06-20T00:11:11.510Z,8.00
2019-06-20T00:12:11.513Z,8.00
2019-06-20T00:13:11.493Z,8.00
2019-06-20T00:14:11.493Z,8.00
2019-06-20T00:15:11.463Z,4.00
2019-06-20T00:16:11.533Z,4.00
2019-06-20T00:17:11.454Z,8.00
2019-06-20T00:18:11.440Z,8.00
2019-06-20T00:19:11.443Z,8.00
2019-06-20T00:20:11.433Z,8.00
2019-06-20T00:21:11.415Z,8.00
2019-06-20T00:22:11.392Z,8.00
2019-06-20T00:23:21.446Z,8.00
2019-06-20T00:24:11.366Z,8.00
2019-06-20T00:25:11.374Z,8.00
2019-06-20T00:26:11.355Z,8.00
2019-06-20T00:27:11.350Z,8.00
2019-06-20T00:28:11.337Z,12.00
2019-06-20T00:29:11.307Z,12.00
2019-06-20T00:30:11.319Z,12.00
2019-06-20T00:31:11.328Z,8.00
2019-06-20T00:32:11.290Z,8.00
2019-06-20T00:33:11.267Z,12.00
2019-06-20T00:34:11.268Z,12.00
2019-06-20T00:35:11.260Z,8.00
2019-06-20T00:36:11.237Z,4.00
2019-06-20T00:37:11.239Z,8.00
2019-06-20T00:38:11.229Z,8.00
2019-06-20T00:39:11.208Z,8.00
2019-06-20T00:40:11.213Z,8.00
2019-06-20T00:41:11.178Z,8.00
2019-06-20T00:42:11.191Z,8.00
2019-06-20T00:43:17.378Z,8.00
2019-06-20T00:44:12.167Z,12.00
2019-06-20T00:45:11.142Z,8.00
2019-06-20T00:46:11.141Z,8.00
2019-06-20T00:47:11.133Z,12.00
2019-06-20T00:48:11.112Z,12.00
2019-06-20T00:49:11.691Z,8.00
2019-06-20T00:50:11.105Z,12.00
2019-06-20T00:51:11.092Z,12.00
2019-06-20T00:52:11.072Z,12.00
2019-06-20T00:53:11.073Z,12.00
2019-06-20T00:54:21.273Z,12.00
2019-06-20T00:55:11.046Z,12.00
2019-06-20T00:56:11.041Z,16.00
2019-06-20T00:57:11.018Z,12.00
2019-06-20T00:58:11.006Z,12.00
2019-06-20T00:59:11.009Z,16.00
2019-06-20T01:00:11.039Z,16.00
2019-06-20T01:01:10.974Z,12.00
2019-06-20T01:02:10.977Z,16.00
2019-06-20T01:03:10.955Z,16.00
2019-06-20T01:04:10.996Z,16.00
2019-06-20T01:05:10.938Z,20.00
2019-06-20T01:06:10.942Z,16.00
2019-06-20T01:07:10.918Z,20.00
2019-06-20T01:08:10.895Z,20.00
2019-06-20T01:09:10.899Z,20.00
2019-06-20T01:10:10.886Z,20.00
2019-06-20T01:11:10.866Z,20.00
2019-06-20T01:12:10.874Z,20.00
2019-06-20T01:13:10.858Z,20.00
2019-06-20T01:14:10.840Z,20.00
2019-06-20T01:15:10.847Z,20.00
2019-06-20T01:16:10.831Z,20.00
2019-06-20T01:17:10.798Z,24.00
2019-06-20T01:18:10.797Z,24.00
2019-06-20T01:19:10.778Z,24.00
2019-06-20T01:20:10.768Z,28.00
2019-06-20T01:21:10.772Z,28.00
2019-06-20T01:22:10.748Z,28.00
2019-06-20T01:23:10.738Z,28.00
2019-06-20T01:24:10.764Z,32.00
2019-06-20T01:25:21.221Z,28.00
2019-06-20T01:26:10.714Z,28.00
2019-06-20T01:27:10.694Z,28.00
2019-06-20T01:28:10.682Z,32.00
2019-06-20T01:29:10.672Z,32.00
2019-06-20T01:30:10.665Z,36.00
2019-06-20T01:31:10.665Z,32.00
2019-06-20T01:32:10.688Z,32.00
2019-06-20T01:33:10.626Z,36.00
2019-06-20T01:34:10.622Z,36.00
2019-06-20T01:35:10.626Z,40.00
2019-06-20T01:36:10.600Z,36.00
2019-06-20T01:37:10.594Z,40.00
2019-06-20T01:38:10.586Z,40.00
2019-06-20T01:39:10.577Z,40.00
2019-06-20T01:40:10.557Z,44.00
2019-06-20T01:41:10.564Z,40.00
2019-06-20T01:42:10.548Z,44.00
2019-06-20T01:43:10.538Z,44.00
2019-06-20T01:44:10.529Z,44.00
2019-06-20T01:45:10.515Z,48.00
2019-06-20T01:46:10.489Z,48.00
2019-06-20T01:47:10.536Z,48.00
2019-06-20T01:48:10.480Z,48.00
2019-06-20T01:49:10.466Z,48.00
2019-06-20T01:50:10.456Z,48.00
2019-06-20T01:51:10.449Z,52.00
2019-06-20T01:52:10.447Z,52.00
2019-06-20T01:53:10.483Z,52.00
2019-06-20T01:54:10.422Z,52.00
2019-06-20T01:55:10.414Z,52.00
2019-06-20T01:56:20.790Z,56.00
2019-06-20T01:57:10.372Z,56.00
2019-06-20T01:58:10.370Z,60.00
2019-06-20T01:59:10.392Z,56.00
2019-06-20T02:00:10.353Z,60.00
2019-06-20T02:01:10.330Z,60.00
2019-06-20T02:02:10.375Z,64.00
2019-06-20T02:03:10.314Z,64.00
2019-06-20T02:04:10.302Z,64.00
2019-06-20T02:05:10.312Z,72.00
2019-06-20T02:06:10.272Z,72.00
2019-06-20T02:07:10.274Z,72.00
2019-06-20T02:08:10.252Z,72.00
2019-06-20T02:09:10.264Z,76.00
2019-06-20T02:10:10.255Z,76.00
2019-06-20T02:11:10.223Z,76.00
2019-06-20T02:12:10.211Z,76.00
2019-06-20T02:13:10.204Z,80.00
2019-06-20T02:14:10.206Z,80.00
2019-06-20T02:15:10.208Z,84.00
2019-06-20T02:16:10.180Z,84.00
2019-06-20T02:17:10.177Z,88.00
2019-06-20T02:18:10.170Z,88.00
2019-06-20T02:19:10.156Z,88.00
2019-06-20T02:20:10.174Z,88.00
2019-06-20T02:21:10.127Z,88.00
2019-06-20T02:22:10.105Z,92.00
2019-06-20T02:23:10.098Z,92.00
2019-06-20T02:24:10.095Z,92.00
2019-06-20T02:25:10.088Z,96.00
2019-06-20T02:26:10.136Z,96.00
2019-06-20T02:27:20.112Z,100.00
2019-06-20T02:28:10.040Z,100.00
2019-06-20T02:29:10.041Z,100.00
2019-06-20T02:30:10.030Z,104.00
2019-06-20T02:31:10.031Z,108.00
2019-06-20T02:32:10.012Z,108.00
2019-06-20T02:33:09.992Z,112.00
2019-06-20T02:34:09.994Z,116.00
2019-06-20T02:35:09.971Z,116.00
2019-06-20T02:36:09.964Z,120.00
2019-06-20T02:37:10.008Z,124.00
2019-06-20T02:38:09.987Z,128.00
2019-06-20T02:39:09.921Z,128.00
2019-06-20T02:40:09.923Z,132.00
2019-06-20T02:41:09.916Z,136.00
2019-06-20T02:42:09.907Z,136.00
2019-06-20T02:43:09.895Z,136.00
2019-06-20T02:44:28.299Z,136.00
2019-06-20T02:45:10.873Z,140.00
2019-06-20T02:46:09.857Z,140.00
2019-06-20T02:47:09.844Z,140.00
2019-06-20T02:48:09.839Z,144.00
2019-06-20T02:49:09.835Z,144.00
2019-06-20T02:50:09.918Z,148.00
2019-06-20T02:51:09.796Z,152.00
2019-06-20T02:52:09.817Z,156.00
2019-06-20T02:53:09.786Z,160.00
2019-06-20T02:54:09.767Z,164.00
2019-06-20T02:55:09.758Z,164.00
2019-06-20T02:56:09.759Z,164.00
2019-06-20T02:57:09.725Z,164.00
2019-06-20T02:58:20.131Z,160.00
2019-06-20T02:59:09.711Z,156.00
2019-06-20T03:00:09.715Z,148.00
2019-06-20T03:01:09.691Z,132.00
2019-06-20T03:02:09.691Z,124.00
2019-06-20T03:03:09.692Z,128.00
2019-06-20T03:04:09.682Z,152.00
2019-06-20T03:05:09.659Z,148.00
2019-06-20T03:06:09.642Z,140.00
2019-06-20T03:07:09.630Z,176.00
2019-06-20T03:08:09.633Z,168.00
2019-06-20T03:09:09.621Z,168.00
2019-06-20T03:10:09.602Z,152.00
2019-06-20T03:11:09.582Z,172.00
2019-06-20T03:12:09.572Z,200.00
2019-06-20T03:13:09.702Z,204.00
2019-06-20T03:14:09.589Z,216.00
2019-06-20T03:15:09.552Z,224.00
2019-06-20T03:16:09.535Z,232.00
2019-06-20T03:17:09.524Z,236.00
2019-06-20T03:18:09.502Z,240.00
2019-06-20T03:19:09.492Z,248.00
2019-06-20T03:20:09.491Z,248.00
2019-06-20T03:21:09.495Z,252.00
2019-06-20T03:22:09.473Z,264.00
2019-06-20T03:23:09.457Z,276.00
2019-06-20T03:24:09.455Z,288.00
2019-06-20T03:25:09.491Z,288.00
2019-06-20T03:26:09.474Z,300.00
2019-06-20T03:27:09.417Z,308.00
2019-06-20T03:28:09.406Z,320.00
2019-06-20T03:29:19.904Z,328.00
2019-06-20T03:30:09.398Z,340.00
2019-06-20T03:31:09.378Z,360.00
2019-06-20T03:32:09.378Z,372.00
2019-06-20T03:33:09.350Z,380.00
2019-06-20T03:34:09.367Z,396.00
2019-06-20T03:35:09.333Z,416.00
2019-06-20T03:36:09.333Z,436.00
2019-06-20T03:37:09.307Z,448.00
2019-06-20T03:38:09.328Z,460.00
2019-06-20T03:39:09.300Z,472.00
2019-06-20T03:40:09.278Z,472.00
2019-06-20T03:41:09.278Z,492.00
2019-06-20T03:42:09.270Z,508.00
2019-06-20T03:43:09.238Z,524.00
2019-06-20T03:44:09.266Z,532.00
2019-06-20T03:45:09.233Z,552.00
2019-06-20T03:46:09.217Z,576.00
2019-06-20T03:47:09.222Z,568.00
2019-06-20T03:48:09.211Z,584.00
2019-06-20T03:49:09.181Z,596.00
2019-06-20T03:50:09.171Z,600.00
2019-06-20T03:51:09.159Z,616.00
2019-06-20T03:52:09.151Z,620.00
2019-06-20T03:53:09.152Z,612.00
2019-06-20T03:54:09.131Z,604.00
2019-06-20T03:55:09.127Z,528.00
2019-06-20T03:56:09.103Z,396.00
2019-06-20T03:57:09.102Z,540.00
2019-06-20T03:58:09.114Z,612.00
2019-06-20T03:59:09.062Z,588.00
2019-06-20T04:00:21.414Z,612.00
2019-06-20T04:01:09.044Z,664.00
2019-06-20T04:02:09.035Z,680.00
2019-06-20T04:03:09.036Z,696.00
2019-06-20T04:04:09.028Z,724.00
2019-06-20T04:05:09.019Z,724.00
2019-06-20T04:06:09.018Z,732.00
2019-06-20T04:07:08.976Z,712.00
2019-06-20T04:08:08.976Z,696.00
2019-06-20T04:09:08.999Z,684.00
2019-06-20T04:10:08.947Z,648.00
2019-06-20T04:11:08.948Z,644.00
2019-06-20T04:12:08.929Z,700.00
2019-06-20T04:13:08.917Z,712.00
2019-06-20T04:14:08.919Z,700.00
2019-06-20T04:15:18.589Z,608.00
2019-06-20T04:16:09.899Z,596.00
2019-06-20T04:17:08.891Z,656.00
2019-06-20T04:18:08.870Z,712.00
2019-06-20T04:19:08.859Z,720.00
2019-06-20T04:20:08.852Z,728.00
2019-06-20T04:21:08.838Z,724.00
2019-06-20T04:22:08.842Z,708.00
2019-06-20T04:23:08.821Z,708.00
2019-06-20T04:24:08.809Z,684.00
2019-06-20T04:25:08.810Z,692.00
2019-06-20T04:26:08.821Z,680.00
2019-06-20T04:27:08.770Z,660.00
2019-06-20T04:28:08.773Z,648.00
2019-06-20T04:29:08.752Z,640.00
2019-06-20T04:30:08.791Z,628.00
2019-06-20T04:31:19.687Z,608.00
2019-06-20T04:32:08.724Z,600.00
2019-06-20T04:33:08.716Z,584.00
2019-06-20T04:34:08.695Z,544.00
2019-06-20T04:35:08.686Z,524.00
2019-06-20T04:36:08.685Z,500.00
2019-06-20T04:37:08.665Z,484.00
2019-06-20T04:38:08.667Z,452.00
2019-06-20T04:39:18.698Z,424.00
2019-06-20T04:40:09.638Z,328.00
2019-06-20T04:41:08.640Z,364.00
2019-06-20T04:42:08.629Z,428.00
2019-06-20T04:43:08.619Z,444.00
2019-06-20T04:44:08.587Z,420.00
2019-06-20T04:45:08.591Z,408.00
2019-06-20T04:46:08.580Z,404.00
2019-06-20T04:47:08.567Z,420.00
2019-06-20T04:48:08.589Z,424.00
2019-06-20T04:49:08.540Z,412.00
2019-06-20T04:50:08.569Z,432.00
2019-06-20T04:51:08.518Z,436.00
2019-06-20T04:52:08.499Z,428.00
2019-06-20T04:53:08.489Z,436.00
2019-06-20T04:54:08.503Z,448.00
2019-06-20T04:55:08.469Z,448.00
2019-06-20T04:56:08.482Z,452.00
2019-06-20T04:57:08.459Z,444.00
2019-06-20T04:58:08.437Z,452.00
2019-06-20T04:59:08.443Z,460.00
2019-06-20T05:00:08.445Z,456.00
2019-06-20T05:01:08.410Z,464.00
2019-06-20T05:02:18.526Z,460.00
2019-06-20T05:03:08.404Z,472.00
2019-06-20T05:04:08.404Z,468.00
2019-06-20T05:05:08.368Z,468.00
2019-06-20T05:06:08.355Z,468.00
2019-06-20T05:07:08.356Z,464.00
2019-06-20T05:08:08.336Z,464.00
2019-06-20T05:09:08.365Z,476.00
2019-06-20T05:10:08.342Z,476.00
2019-06-20T05:11:08.306Z,492.00
2019-06-20T05:12:08.286Z,500.00
2019-06-20T05:13:08.276Z,508.00
2019-06-20T05:14:08.279Z,504.00
2019-06-20T05:15:08.587Z,488.00
2019-06-20T05:16:08.276Z,484.00
2019-06-20T05:17:08.237Z,476.00
2019-06-20T05:18:08.228Z,472.00
2019-06-20T05:19:08.285Z,484.00
2019-06-20T05:20:08.220Z,456.00
2019-06-20T05:21:08.207Z,476.00
2019-06-20T05:22:08.181Z,488.00
2019-06-20T05:23:08.227Z,488.00
2019-06-20T05:24:08.172Z,488.00
2019-06-20T05:25:08.161Z,492.00
2019-06-20T05:26:08.171Z,492.00
2019-06-20T05:27:08.129Z,492.00
2019-06-20T05:28:08.129Z,500.00
2019-06-20T05:29:08.112Z,496.00
2019-06-20T05:30:08.103Z,500.00
2019-06-20T05:31:08.170Z,460.00
2019-06-20T05:32:08.082Z,500.00
2019-06-20T05:33:18.155Z,500.00
2019-06-20T05:34:08.068Z,504.00
2019-06-20T05:35:08.059Z,504.00
2019-06-20T05:36:08.051Z,504.00
2019-06-20T05:37:08.047Z,508.00
2019-06-20T05:38:08.023Z,516.00
2019-06-20T05:39:08.017Z,516.00
2019-06-20T05:40:08.009Z,520.00
2019-06-20T05:41:07.976Z,524.00
2019-06-20T05:42:07.988Z,520.00
2019-06-20T05:43:07.975Z,524.00
2019-06-20T05:44:07.955Z,528.00
2019-06-20T05:45:07.960Z,516.00
2019-06-20T05:46:10.607Z,528.00
2019-06-20T05:47:12.217Z,532.00
2019-06-20T05:48:08.929Z,536.00
2019-06-20T05:49:07.898Z,532.00
2019-06-20T05:50:07.901Z,540.00
2019-06-20T05:51:07.879Z,536.00
2019-06-20T05:52:07.870Z,544.00
2019-06-20T05:53:07.858Z,556.00
2019-06-20T05:54:07.862Z,556.00
2019-06-20T05:55:07.855Z,560.00
2019-06-20T05:56:08.691Z,564.00
2019-06-20T05:57:07.824Z,568.00
2019-06-20T05:58:07.819Z,560.00
2019-06-20T05:59:08.260Z,568.00
2019-06-20T06:00:08.402Z,572.00
2019-06-20T06:01:07.774Z,572.00
2019-06-20T06:02:07.769Z,580.00
2019-06-20T06:03:07.761Z,584.00
2019-06-20T06:04:18.354Z,588.00
2019-06-20T06:05:07.732Z,584.00
2019-06-20T06:06:07.722Z,596.00
2019-06-20T06:07:07.724Z,596.00
2019-06-20T06:08:07.702Z,604.00
2019-06-20T06:09:07.701Z,616.00
2019-06-20T06:10:07.729Z,616.00
2019-06-20T06:11:07.676Z,620.00
2019-06-20T06:12:07.676Z,616.00
2019-06-20T06:13:07.670Z,636.00
2019-06-20T06:14:07.646Z,628.00
2019-06-20T06:15:07.623Z,628.00
2019-06-20T06:16:07.637Z,628.00
2019-06-20T06:17:07.670Z,624.00
2019-06-20T06:18:07.594Z,624.00
2019-06-20T06:19:07.594Z,632.00
2019-06-20T06:20:07.585Z,636.00
2019-06-20T06:21:07.576Z,636.00
2019-06-20T06:22:07.573Z,620.00
2019-06-20T06:23:07.544Z,636.00
2019-06-20T06:24:07.536Z,636.00
2019-06-20T06:25:07.523Z,636.00
2019-06-20T06:26:07.538Z,648.00
2019-06-20T06:27:07.517Z,648.00
2019-06-20T06:28:07.507Z,652.00
2019-06-20T06:29:07.499Z,656.00
2019-06-20T06:30:07.469Z,664.00
2019-06-20T06:31:07.477Z,668.00
2019-06-20T06:32:07.447Z,676.00
2019-06-20T06:33:07.452Z,688.00
2019-06-20T06:34:07.437Z,672.00
2019-06-20T06:35:19.424Z,696.00
2019-06-20T06:36:07.479Z,680.00
2019-06-20T06:37:07.427Z,684.00
2019-06-20T06:38:07.407Z,688.00
2019-06-20T06:39:07.396Z,684.00
2019-06-20T06:40:07.374Z,692.00
2019-06-20T06:41:07.367Z,696.00
2019-06-20T06:42:07.615Z,700.00
2019-06-20T06:43:07.327Z,696.00
2019-06-20T06:44:08.447Z,708.00
2019-06-20T06:45:07.330Z,712.00
2019-06-20T06:46:07.323Z,720.00
2019-06-20T06:47:07.359Z,724.00
2019-06-20T06:48:07.302Z,724.00
2019-06-20T06:49:07.270Z,740.00
2019-06-20T06:50:07.267Z,740.00
2019-06-20T06:51:07.248Z,736.00
2019-06-20T06:52:07.298Z,736.00
2019-06-20T06:53:07.285Z,732.00
2019-06-20T06:54:07.230Z,736.00
2019-06-20T06:55:07.221Z,748.00
2019-06-20T06:56:07.206Z,740.00
2019-06-20T06:57:07.205Z,748.00
2019-06-20T06:58:07.182Z,760.00
2019-06-20T06:59:07.201Z,764.00
2019-06-20T07:00:07.162Z,768.00
2019-06-20T07:01:10.164Z,796.00
2019-06-20T07:02:07.130Z,752.00
2019-06-20T07:03:07.130Z,784.00
2019-06-20T07:04:07.114Z,792.00
2019-06-20T07:05:07.103Z,792.00
2019-06-20T07:06:17.493Z,792.00
2019-06-20T07:07:07.088Z,800.00
2019-06-20T07:08:07.074Z,808.00
2019-06-20T07:09:07.065Z,796.00
2019-06-20T07:10:07.051Z,808.00
2019-06-20T07:11:07.047Z,820.00
2019-06-20T07:12:07.026Z,820.00
2019-06-20T07:13:07.016Z,824.00
2019-06-20T07:14:07.049Z,824.00
2019-06-20T07:15:06.998Z,832.00
2019-06-20T07:16:07.003Z,836.00
2019-06-20T07:17:06.979Z,848.00
2019-06-20T07:18:06.967Z,848.00
2019-06-20T07:19:06.948Z,864.00
2019-06-20T07:20:06.972Z,856.00
2019-06-20T07:21:06.932Z,860.00
2019-06-20T07:22:06.921Z,864.00
2019-06-20T07:23:06.910Z,872.00
2019-06-20T07:24:06.899Z,880.00
2019-06-20T07:25:06.940Z,884.00
2019-06-20T07:26:06.910Z,892.00
2019-06-20T07:27:06.877Z,904.00
2019-06-20T07:28:06.861Z,896.00
2019-06-20T07:29:06.867Z,900.00
2019-06-20T07:30:06.897Z,900.00
2019-06-20T07:31:06.842Z,896.00
2019-06-20T07:32:06.843Z,912.00
2019-06-20T07:33:06.802Z,860.00
2019-06-20T07:34:06.804Z,912.00
2019-06-20T07:35:06.780Z,920.00
2019-06-20T07:36:06.806Z,928.00
2019-06-20T07:37:17.426Z,932.00
2019-06-20T07:38:06.838Z,956.00
2019-06-20T07:39:06.734Z,944.00
2019-06-20T07:40:06.728Z,944.00
2019-06-20T07:41:06.715Z,960.00
2019-06-20T07:42:06.718Z,956.00
2019-06-20T07:43:06.706Z,960.00
2019-06-20T07:44:06.709Z,960.00
2019-06-20T07:45:06.688Z,960.00
2019-06-20T07:46:06.666Z,964.00
2019-06-20T07:47:17.182Z,976.00
2019-06-20T07:48:07.653Z,972.00
2019-06-20T07:49:06.636Z,980.00
2019-06-20T07:50:06.617Z,980.00
2019-06-20T07:51:06.641Z,980.00
2019-06-20T07:52:06.728Z,988.00
2019-06-20T07:53:06.616Z,1000.00
2019-06-20T07:54:06.579Z,1004.00
2019-06-20T07:55:06.578Z,1008.00
2019-06-20T07:56:09.437Z,1000.00
2019-06-20T07:57:06.571Z,1008.00
2019-06-20T07:58:06.582Z,1012.00
2019-06-20T07:59:06.536Z,1000.00
2019-06-20T08:00:06.520Z,1008.00
2019-06-20T08:01:06.509Z,1008.00
2019-06-20T08:02:06.513Z,1012.00
2019-06-20T08:03:06.492Z,1016.00
2019-06-20T08:04:06.541Z,1016.00
2019-06-20T08:05:06.478Z,1016.00
2019-06-20T08:06:06.464Z,1032.00
2019-06-20T08:07:06.444Z,1036.00
2019-06-20T08:08:17.139Z,1020.00
2019-06-20T08:09:06.418Z,996.00
2019-06-20T08:10:06.463Z,1024.00
2019-06-20T08:11:06.413Z,1016.00
2019-06-20T08:12:06.386Z,1032.00
2019-06-20T08:13:06.389Z,1036.00
2019-06-20T08:14:06.359Z,1032.00
2019-06-20T08:15:15.178Z,1028.00
2019-06-20T08:16:07.394Z,1048.00
2019-06-20T08:17:06.341Z,1044.00
2019-06-20T08:18:06.320Z,1044.00
2019-06-20T08:19:06.331Z,1044.00
2019-06-20T08:20:06.322Z,1072.00
2019-06-20T08:21:06.300Z,1060.00
2019-06-20T08:22:06.354Z,1048.00
2019-06-20T08:23:06.270Z,1040.00
2019-06-20T08:24:06.258Z,1048.00
2019-06-20T08:25:06.251Z,1048.00
2019-06-20T08:26:06.955Z,1024.00
2019-06-20T08:27:06.755Z,1052.00
2019-06-20T08:28:06.645Z,1060.00
2019-06-20T08:29:18.729Z,1080.00
2019-06-20T08:30:07.319Z,1064.00
2019-06-20T08:31:06.796Z,1072.00
2019-06-20T08:32:06.634Z,1064.00
2019-06-20T08:33:11.781Z,1068.00
2019-06-20T08:34:07.160Z,1068.00
2019-06-20T08:35:06.516Z,1064.00
2019-06-20T08:36:06.662Z,1064.00
2019-06-20T08:37:06.439Z,1056.00
2019-06-20T08:38:07.589Z,1060.00
2019-06-20T08:39:16.739Z,1060.00
2019-06-20T08:40:06.566Z,1064.00
2019-06-20T08:41:06.595Z,1072.00
2019-06-20T08:42:06.404Z,1072.00
2019-06-20T08:43:06.380Z,1072.00
2019-06-20T08:44:06.178Z,1080.00
2019-06-20T08:45:06.155Z,1080.00
2019-06-20T08:46:10.050Z,1064.00
2019-06-20T08:47:06.042Z,1076.00
2019-06-20T08:48:07.272Z,1088.00
2019-06-20T08:49:06.011Z,1100.00
2019-06-20T08:50:06.134Z,1088.00
2019-06-20T08:51:06.587Z,1080.00
2019-06-20T08:52:05.972Z,1084.00
2019-06-20T08:53:06.024Z,1084.00
2019-06-20T08:54:05.965Z,1080.00
2019-06-20T08:55:05.985Z,1088.00
2019-06-20T08:56:05.923Z,1084.00
2019-06-20T08:57:05.995Z,1092.00
2019-06-20T08:58:05.920Z,1088.00
2019-06-20T08:59:05.894Z,1076.00
2019-06-20T09:03:05.855Z,1128.00
2019-06-20T09:04:05.839Z,1116.00
2019-06-20T09:05:05.856Z,1108.00
2019-06-20T09:06:05.845Z,1096.00
2019-06-20T09:07:05.821Z,1100.00
2019-06-20T09:08:05.789Z,1116.00
2019-06-20T09:09:05.798Z,1096.00
2019-06-20T09:10:16.592Z,1076.00
2019-06-20T09:11:05.773Z,1080.00
2019-06-20T09:12:05.751Z,1092.00
2019-06-20T09:13:05.740Z,1084.00
2019-06-20T09:14:05.746Z,1080.00
2019-06-20T09:15:05.723Z,1092.00
2019-06-20T09:16:05.731Z,1060.00
2019-06-20T09:17:05.706Z,1052.00
2019-06-20T09:18:05.695Z,1068.00
2019-06-20T09:19:05.672Z,1088.00
2019-06-20T09:20:05.675Z,1064.00
2019-06-20T09:21:05.675Z,456.00
2019-06-20T09:22:05.644Z,608.00
2019-06-20T09:23:05.642Z,420.00
2019-06-20T09:24:05.632Z,556.00
2019-06-20T09:25:05.615Z,1040.00
2019-06-20T09:26:05.656Z,532.00
2019-06-20T09:27:05.593Z,1040.00
2019-06-20T09:28:05.583Z,1084.00
2019-06-20T09:29:05.588Z,1068.00
2019-06-20T09:30:05.577Z,1044.00
2019-06-20T09:31:05.558Z,1056.00
2019-06-20T09:32:05.556Z,1060.00
2019-06-20T09:33:05.526Z,1064.00
2019-06-20T09:34:05.577Z,1048.00
2019-06-20T09:35:05.516Z,1040.00
2019-06-20T09:36:05.553Z,1036.00
2019-06-20T09:37:05.566Z,1036.00
2019-06-20T09:38:05.479Z,992.00
2019-06-20T09:39:05.480Z,504.00
2019-06-20T09:40:05.458Z,736.00
2019-06-20T09:41:15.737Z,380.00
2019-06-20T09:42:05.444Z,360.00
2019-06-20T09:43:05.445Z,364.00
2019-06-20T09:44:05.431Z,376.00
2019-06-20T09:45:05.409Z,400.00
2019-06-20T09:46:05.396Z,1044.00
2019-06-20T09:47:05.397Z,1040.00
2019-06-20T09:48:05.385Z,1036.00
2019-06-20T09:49:05.368Z,1056.00
2019-06-20T09:50:05.368Z,1084.00
2019-06-20T09:51:05.346Z,1060.00
2019-06-20T09:52:05.374Z,1056.00
2019-06-20T09:53:05.346Z,1056.00
2019-06-20T09:54:05.324Z,1032.00
2019-06-20T09:55:05.298Z,1020.00
2019-06-20T09:56:05.298Z,1032.00
2019-06-20T09:57:05.279Z,1016.00
2019-06-20T09:58:05.278Z,980.00
2019-06-20T09:59:05.268Z,1000.00
2019-06-20T10:00:10.350Z,1040.00
2019-06-20T10:01:06.242Z,1068.00
2019-06-20T10:02:05.231Z,1032.00
2019-06-20T10:03:05.226Z,1008.00
2019-06-20T10:04:05.209Z,1008.00
2019-06-20T10:05:05.204Z,1012.00
2019-06-20T10:06:13.188Z,1044.00
2019-06-20T10:07:06.194Z,992.00
2019-06-20T10:08:05.173Z,1044.00
2019-06-20T10:09:05.175Z,1036.00
2019-06-20T10:10:05.163Z,1004.00
2019-06-20T10:11:05.143Z,984.00
2019-06-20T10:12:15.837Z,988.00
2019-06-20T10:13:05.128Z,980.00
2019-06-20T10:14:05.109Z,980.00
2019-06-20T10:15:05.106Z,960.00
2019-06-20T10:16:05.106Z,948.00
2019-06-20T10:17:05.067Z,944.00
2019-06-20T10:18:05.061Z,956.00
2019-06-20T10:19:05.051Z,940.00
2019-06-20T10:20:05.069Z,952.00
2019-06-20T10:21:05.021Z,940.00
2019-06-20T10:22:05.029Z,952.00
2019-06-20T10:23:05.009Z,960.00
2019-06-20T10:24:05.015Z,932.00
2019-06-20T10:25:04.980Z,928.00
2019-06-20T10:26:05.021Z,916.00
2019-06-20T10:27:04.952Z,916.00
2019-06-20T10:28:04.963Z,920.00
2019-06-20T10:29:04.945Z,932.00
2019-06-20T10:30:13.837Z,928.00
2019-06-20T10:31:05.945Z,924.00
2019-06-20T10:32:04.922Z,932.00
2019-06-20T10:33:04.905Z,940.00
2019-06-20T10:34:04.896Z,432.00
2019-06-20T10:35:04.882Z,684.00
2019-06-20T10:36:04.872Z,528.00
2019-06-20T10:37:04.906Z,960.00
2019-06-20T10:38:04.844Z,964.00
2019-06-20T10:39:04.835Z,956.00
2019-06-20T10:40:04.841Z,964.00
2019-06-20T10:41:04.827Z,420.00
2019-06-20T10:42:04.798Z,368.00
2019-06-20T10:43:15.568Z,368.00
2019-06-20T10:44:04.792Z,792.00
2019-06-20T10:45:04.790Z,388.00
2019-06-20T10:46:04.760Z,348.00
2019-06-20T10:47:04.772Z,356.00
2019-06-20T10:48:04.743Z,380.00
2019-06-20T10:49:04.744Z,916.00
2019-06-20T10:50:04.712Z,976.00
2019-06-20T10:51:04.711Z,972.00
2019-06-20T10:52:04.715Z,380.00
2019-06-20T10:53:04.707Z,368.00
2019-06-20T10:54:04.692Z,916.00
2019-06-20T10:55:04.672Z,932.00
2019-06-20T10:56:04.664Z,924.00
2019-06-20T10:57:04.654Z,928.00
2019-06-20T10:58:04.670Z,940.00
2019-06-20T10:59:04.638Z,948.00
2019-06-20T11:00:04.641Z,664.00
2019-06-20T11:01:04.616Z,920.00
2019-06-20T11:02:07.248Z,932.00
2019-06-20T11:03:04.595Z,920.00
2019-06-20T11:04:04.598Z,916.00
2019-06-20T11:05:04.577Z,916.00
2019-06-20T11:06:05.417Z,912.00
2019-06-20T11:07:04.550Z,916.00
2019-06-20T11:08:04.587Z,904.00
2019-06-20T11:09:04.540Z,896.00
2019-06-20T11:10:04.518Z,884.00
2019-06-20T11:11:04.516Z,916.00
2019-06-20T11:12:04.505Z,892.00
2019-06-20T11:13:04.500Z,916.00
2019-06-20T11:14:16.785Z,892.00
2019-06-20T11:15:04.475Z,928.00
2019-06-20T11:16:04.465Z,700.00
2019-06-20T11:17:04.455Z,904.00
2019-06-20T11:18:04.437Z,824.00
2019-06-20T11:19:04.448Z,772.00
2019-06-20T11:20:04.425Z,892.00
2019-06-20T11:21:04.406Z,892.00
2019-06-20T11:22:04.401Z,904.00
2019-06-20T11:23:04.395Z,908.00
2019-06-20T11:24:04.425Z,920.00
2019-06-20T11:25:04.370Z,940.00
2019-06-20T11:26:04.356Z,924.00
2019-06-20T11:27:04.337Z,932.00
2019-06-20T11:28:04.342Z,948.00
2019-06-20T11:29:04.378Z,936.00
2019-06-20T11:30:04.318Z,920.00
2019-06-20T11:31:04.311Z,376.00
2019-06-20T11:32:04.288Z,420.00
2019-06-20T11:33:04.289Z,920.00
2019-06-20T11:34:04.282Z,908.00
2019-06-20T11:35:04.282Z,912.00
2019-06-20T11:36:04.271Z,888.00
2019-06-20T11:37:04.247Z,372.00
2019-06-20T11:38:04.256Z,348.00
2019-06-20T11:39:04.228Z,352.00
2019-06-20T11:40:04.224Z,840.00
2019-06-20T11:41:04.231Z,748.00
2019-06-20T11:42:04.191Z,844.00
2019-06-20T11:43:04.194Z,872.00
2019-06-20T11:44:04.182Z,352.00
2019-06-20T11:45:14.327Z,328.00
2019-06-20T11:46:04.147Z,324.00
2019-06-20T11:47:04.159Z,336.00
2019-06-20T11:48:04.139Z,464.00
2019-06-20T11:49:04.119Z,332.00
2019-06-20T11:50:04.134Z,332.00
2019-06-20T11:51:04.108Z,336.00
2019-06-20T11:52:04.107Z,348.00
2019-06-20T11:53:04.090Z,376.00
2019-06-20T11:54:04.081Z,800.00
2019-06-20T11:55:04.069Z,852.00
2019-06-20T11:56:04.049Z,860.00
2019-06-20T11:57:04.061Z,888.00
2019-06-20T11:58:04.050Z,848.00
2019-06-20T11:59:04.010Z,812.00
2019-06-20T12:00:04.000Z,740.00
2019-06-20T12:01:04.323Z,812.00
2019-06-20T12:02:03.982Z,376.00
2019-06-20T12:03:03.994Z,352.00
2019-06-20T12:04:03.974Z,528.00
2019-06-20T12:05:03.942Z,848.00
2019-06-20T12:06:03.940Z,792.00
2019-06-20T12:07:03.935Z,848.00
2019-06-20T12:08:03.922Z,832.00
2019-06-20T12:09:03.928Z,796.00
2019-06-20T12:10:03.906Z,824.00
2019-06-20T12:11:03.883Z,828.00
2019-06-20T12:12:03.923Z,820.00
2019-06-20T12:13:03.880Z,780.00
2019-06-20T12:14:03.870Z,732.00
2019-06-20T12:15:06.995Z,804.00
2019-06-20T12:16:14.193Z,800.00
2019-06-20T12:17:03.831Z,808.00
2019-06-20T12:18:03.821Z,328.00
2019-06-20T12:19:03.810Z,520.00
2019-06-20T12:20:03.800Z,792.00
2019-06-20T12:21:03.815Z,796.00
2019-06-20T12:22:03.775Z,780.00
2019-06-20T12:23:03.786Z,808.00
2019-06-20T12:24:03.804Z,784.00
2019-06-20T12:25:03.743Z,736.00
2019-06-20T12:26:03.734Z,500.00
2019-06-20T12:27:03.732Z,400.00
2019-06-20T12:28:03.723Z,512.00
2019-06-20T12:29:03.716Z,408.00
2019-06-20T12:30:03.708Z,336.00
2019-06-20T12:31:18.618Z,324.00
2019-06-20T12:32:04.677Z,316.00
2019-06-20T12:33:03.655Z,340.00